This is the latest recevied weather packets stored in our database for station/object KMASWX. If no packets are shown the sender has not sent any weather packets the latest 1 day(s).
| Time | Temp. | Humidity | Pressure | Rain* | Wind** | Luminosity | Snow |
|---|---|---|---|---|---|---|---|
| 1778092869 | 21.67° C | 40% | - | 0 mm | - | - | - |
| 1778091651 | 20.56° C | 42% | - | 0 mm | - | - | - |
| 1778091040 | 20° C | 43% | - | 0 mm | - | - | - |
| 1778090737 | 20° C | 43% | - | 0 mm | - | - | - |
| 1778089821 | 20.56° C | 41% | - | 0 mm | - | - | - |
| 1778089514 | 20° C | 44% | - | 0 mm | - | - | - |
| 1778089210 | 18.89° C | 45% | - | 0 mm | - | - | - |
| 1778087988 | 18.33° C | 44% | - | 0 mm | - | - | - |
| 1778087684 | 18.33° C | 46% | - | 0 mm | - | - | - |
| 1778087381 | 17.78° C | 46% | - | 0 mm | - | - | - |
| 1778087074 | 17.78° C | 46% | - | 0 mm | - | - | - |
| 1778086164 | 17.22° C | 48% | - | 0 mm | - | - | - |
| 1778085250 | 16.67° C | 48% | - | 0 mm | - | - | - |
| 1778084033 | 16.67° C | 49% | - | 0 mm | - | - | - |
| 1778083422 | 16.11° C | 50% | - | 0 mm | - | - | - |
| 1778082202 | 15.56° C | 54% | - | 0 mm | - | - | - |
| 1778081592 | 13.89° C | 57% | - | 0 mm | - | - | - |
| 1778081289 | 13.33° C | 58% | - | 0 mm | - | - | - |
| 1778080374 | 13.33° C | 58% | - | 0 mm | - | - | - |
| 1778079460 | 12.78° C | 63% | - | 0 mm | - | - | - |
| 1778078546 | 12.78° C | 62% | - | 0 mm | - | - | - |
| 1778077329 | 12.78° C | 61% | - | 0 mm | - | - | - |
| 1778077021 | 12.78° C | 61% | - | 0 mm | - | - | - |
| 1778076717 | 12.78° C | 61% | - | 0 mm | - | - | - |
| 1778075804 | 11.11° C | 65% | - | 0 mm | - | - | - |
* Rain latest 24 hours (hover to see other rain measurements)
** Current wind speed in m/s (hover to see current wind gust speed)